Time;durP1;ratioP1;P1;durP2;ratioP2;P2;SDS_P1;SDS_P2;PMS_P1;PMS_P2;Temp;Humidity;BMP_temperature;BMP_pressure;BME280_temperature;BME280_humidity;BME280_pressure;Samples;Min_cycle;Max_cycle;Signal;HPM_P1;HPM_P2
2022/05/09 00:02:06;;;;;;;11.23;7.77;;;18.60;99.90;;;;;;5072600;28;20891;-70
2022/05/09 00:04:31;;;;;;;8.33;6.60;;;18.50;99.90;;;;;;5073841;28;20432;-69
2022/05/09 00:07:00;;;;;;;8.30;6.77;;;18.50;99.90;;;;;;5074488;28;20432;-70
2022/05/09 00:09:26;;;;;;;9.63;6.50;;;18.50;99.90;;;;;;5072436;28;20439;-70
2022/05/09 00:11:54;;;;;;;8.67;7.20;;;18.50;99.90;;;;;;5072700;28;20453;-71
2022/05/09 00:14:28;;;;;;;8.30;7.20;;;18.40;99.90;;;;;;5072601;28;20666;-70
2022/05/09 00:16:59;;;;;;;8.80;7.07;;;18.40;99.90;;;;;;5072419;28;20539;-71
2022/05/09 00:19:27;;;;;;;11.53;8.40;;;18.30;99.90;;;;;;5072578;28;20963;-70
2022/05/09 00:21:56;;;;;;;10.53;6.63;;;18.30;99.90;;;;;;5072540;28;20528;-70
2022/05/09 00:24:22;;;;;;;10.70;7.50;;;18.20;99.90;;;;;;5072469;28;20445;-70
2022/05/09 00:26:52;;;;;;;8.60;7.00;;;18.10;99.90;;;;;;5072692;28;20957;-70
2022/05/09 00:29:20;;;;;;;12.20;7.30;;;18.00;99.90;;;;;;5074062;28;20546;-69
2022/05/09 00:31:50;;;;;;;8.90;6.47;;;18.00;99.90;;;;;;5072576;28;20938;-71
2022/05/09 00:34:19;;;;;;;7.63;6.43;;;17.90;99.90;;;;;;5072720;28;20993;-70
2022/05/09 00:36:48;;;;;;;10.60;7.40;;;17.80;99.90;;;;;;5072080;28;20503;-72
2022/05/09 00:39:15;;;;;;;10.33;7.70;;;17.80;99.90;;;;;;5072259;28;20461;-71
2022/05/09 00:41:44;;;;;;;8.13;6.93;;;17.70;99.90;;;;;;5072563;28;21003;-70
2022/05/09 00:44:21;;;;;;;10.57;7.60;;;17.70;99.90;;;;;;5072350;28;20513;-70
2022/05/09 00:46:50;;;;;;;10.03;7.83;;;17.70;99.90;;;;;;5072571;28;20506;-70
2022/05/09 00:49:24;;;;;;;11.40;7.57;;;17.60;99.90;;;;;;5072173;28;20472;-70
2022/05/09 00:52:10;;;;;;;11.63;7.10;;;17.60;99.90;;;;;;5072443;28;20780;-70
2022/05/09 00:54:58;;;;;;;9.87;6.87;;;17.60;99.90;;;;;;5072305;28;20456;-70
2022/05/09 00:58:03;;;;;;;10.70;7.57;;;17.50;99.90;;;;;;5073600;28;20441;-70
2022/05/09 01:00:29;;;;;;;11.77;8.37;;;17.50;99.90;;;;;;5075946;28;20547;-70
2022/05/09 01:03:01;;;;;;;9.93;6.80;;;17.50;99.90;;;;;;5076018;28;20429;-70
2022/05/09 01:05:32;;;;;;;11.73;7.10;;;17.40;99.90;;;;;;5076192;28;20479;-69
2022/05/09 01:08:02;;;;;;;7.63;6.70;;;17.40;99.90;;;;;;5076008;28;20434;-70
2022/05/09 01:10:34;;;;;;;10.03;6.70;;;17.30;99.90;;;;;;5075887;28;20449;-70
2022/05/09 01:13:03;;;;;;;11.70;7.50;;;17.30;99.90;;;;;;5075872;28;20409;-70
2022/05/09 01:15:30;;;;;;;11.17;7.57;;;17.20;99.90;;;;;;5075648;28;20466;-70
2022/05/09 01:18:04;;;;;;;11.30;7.90;;;17.20;99.90;;;;;;5075939;28;20498;-70
2022/05/09 01:20:30;;;;;;;12.23;7.30;;;17.20;99.90;;;;;;5075922;28;20453;-70
2022/05/09 01:23:03;;;;;;;11.07;7.20;;;17.10;99.90;;;;;;5077001;28;20450;-70
2022/05/09 01:25:37;;;;;;;9.17;6.50;;;17.10;99.90;;;;;;5075514;28;20224;-69
2022/05/09 01:28:09;;;;;;;10.93;7.40;;;17.10;99.90;;;;;;5075388;28;20413;-70
2022/05/09 01:30:46;;;;;;;10.13;7.37;;;17.00;99.90;;;;;;5075381;28;20807;-70
2022/05/09 01:33:23;;;;;;;10.70;7.57;;;17.00;99.90;;;;;;5075330;28;20771;-70
2022/05/09 01:36:12;;;;;;;10.87;7.83;;;17.00;99.90;;;;;;5074054;28;20492;-70
2022/05/09 01:39:03;;;;;;;11.37;6.93;;;16.90;99.90;;;;;;5075567;28;20409;-70
2022/05/09 01:41:39;;;;;;;9.40;7.30;;;16.80;99.90;;;;;;5077182;28;20418;-69
2022/05/09 01:44:07;;;;;;;9.63;7.00;;;16.60;99.90;;;;;;5075331;28;20519;-69
2022/05/09 01:46:34;;;;;;;11.03;8.03;;;16.50;99.90;;;;;;5075483;28;21012;-70
2022/05/09 01:51:46;;;;;;;9.73;6.90;;;16.40;99.90;;;;;;5077277;28;20421;-70
2022/05/09 01:54:14;;;;;;;9.93;7.20;;;16.40;99.90;;;;;;5075076;28;20434;-70
2022/05/09 01:56:41;;;;;;;9.67;7.33;;;16.30;99.90;;;;;;5075170;28;20814;-70
2022/05/09 01:59:10;;;;;;;11.23;7.93;;;16.30;99.90;;;;;;5074832;28;20462;-69
2022/05/09 02:01:44;;;;;;;8.60;7.33;;;16.30;99.90;;;;;;5075121;28;20431;-69
2022/05/09 02:04:14;;;;;;;11.93;7.90;;;16.30;99.90;;;;;;5074975;28;20530;-69
2022/05/09 02:06:44;;;;;;;9.83;7.40;;;16.20;99.90;;;;;;5076046;28;20442;-70
2022/05/09 02:09:14;;;;;;;14.30;8.50;;;16.10;99.90;;;;;;5074673;28;20434;-70
2022/05/09 02:11:42;;;;;;;11.00;7.40;;;16.10;99.90;;;;;;5076721;28;20182;-70
2022/05/09 02:14:09;;;;;;;11.63;8.37;;;16.00;99.90;;;;;;5074881;28;20812;-69
2022/05/09 02:16:39;;;;;;;11.03;7.83;;;16.00;99.90;;;;;;5074708;28;20527;-69
2022/05/09 02:19:12;;;;;;;10.60;7.97;;;15.90;99.90;;;;;;5074705;28;20465;-70
2022/05/09 02:21:39;;;;;;;9.43;6.50;;;15.90;99.90;;;;;;5074917;28;20440;-69
2022/05/09 02:24:08;;;;;;;12.47;7.97;;;15.80;99.90;;;;;;5074612;28;20437;-70
2022/05/09 02:26:34;;;;;;;10.30;6.60;;;15.80;99.90;;;;;;5074546;28;20759;-69
2022/05/09 02:29:00;;;;;;;10.57;8.40;;;15.70;99.90;;;;;;5074698;28;20410;-69
2022/05/09 02:31:37;;;;;;;12.90;8.37;;;15.60;99.90;;;;;;5074604;28;20180;-69
2022/05/09 02:34:03;;;;;;;9.60;7.40;;;15.50;99.90;;;;;;5075005;28;20540;-70
2022/05/09 02:36:29;;;;;;;12.00;7.90;;;15.50;99.90;;;;;;5074264;28;20500;-69
2022/05/09 02:39:00;;;;;;;10.07;7.50;;;15.50;99.90;;;;;;5074272;28;20961;-70
2022/05/09 02:41:26;;;;;;;12.40;7.73;;;15.50;99.90;;;;;;5074534;28;20506;-69
2022/05/09 02:43:53;;;;;;;11.10;7.77;;;15.50;99.90;;;;;;5075678;28;20409;-70
2022/05/09 02:46:23;;;;;;;10.60;6.73;;;15.50;99.90;;;;;;5074384;28;20272;-70
2022/05/09 02:48:52;;;;;;;8.83;7.80;;;15.50;99.90;;;;;;5073969;28;20426;-70
2022/05/09 02:51:18;;;;;;;10.90;7.47;;;15.50;99.90;;;;;;5073820;28;20425;-69
2022/05/09 02:53:43;;;;;;;11.30;8.10;;;15.50;99.90;;;;;;5074091;28;20422;-69
2022/05/09 02:56:10;;;;;;;10.63;7.57;;;15.50;99.90;;;;;;5073915;28;21020;-69
2022/05/09 02:58:42;;;;;;;11.00;7.47;;;15.50;99.90;;;;;;5074007;28;20540;-69
2022/05/09 03:01:08;;;;;;;12.80;8.73;;;15.40;99.90;;;;;;5073879;28;20454;-70
2022/05/09 03:06:25;;;;;;;10.43;6.40;;;15.40;99.90;;;;;;5075892;28;20471;-69
2022/05/09 03:08:51;;;;;;;9.73;7.33;;;15.30;99.90;;;;;;5073722;28;20410;-70
2022/05/09 03:11:20;;;;;;;9.70;7.80;;;15.30;99.90;;;;;;5073798;28;20495;-69
2022/05/09 03:13:48;;;;;;;11.07;7.87;;;15.20;99.90;;;;;;5073665;28;20899;-70
2022/05/09 03:16:14;;;;;;;12.33;8.00;;;15.20;99.90;;;;;;5073838;28;20470;-70
2022/05/09 03:18:40;;;;;;;10.93;6.83;;;15.20;99.90;;;;;;5073650;28;20418;-69
2022/05/09 03:21:13;;;;;;;12.37;7.90;;;15.20;99.90;;;;;;5073680;28;20563;-70
2022/05/09 03:23:43;;;;;;;9.70;7.80;;;15.20;99.90;;;;;;5073710;28;20841;-70
2022/05/09 03:26:11;;;;;;;14.07;8.60;;;15.20;99.90;;;;;;5073602;28;20520;-69
2022/05/09 03:28:37;;;;;;;11.03;7.43;;;15.20;99.90;;;;;;5073640;28;20417;-70
2022/05/09 03:31:04;;;;;;;12.43;7.30;;;15.30;99.90;;;;;;5073371;28;20438;-69
2022/05/09 03:33:30;;;;;;;14.03;7.70;;;15.30;99.90;;;;;;5073461;28;20492;-70
2022/05/09 03:36:01;;;;;;;12.00;7.37;;;15.30;99.90;;;;;;5072755;28;20588;-70
2022/05/09 03:38:28;;;;;;;11.70;8.43;;;15.40;99.90;;;;;;5073142;28;20406;-69
2022/05/09 03:40:54;;;;;;;10.37;6.83;;;15.40;99.90;;;;;;5073023;28;20818;-70
2022/05/09 03:43:20;;;;;;;11.40;7.83;;;15.40;99.90;;;;;;5073111;28;20414;-69
2022/05/09 03:45:48;;;;;;;10.07;7.47;;;15.40;99.90;;;;;;5072879;28;20215;-70
2022/05/09 03:48:13;;;;;;;11.00;7.27;;;15.40;99.90;;;;;;5072837;28;20402;-70
2022/05/09 03:50:40;;;;;;;14.30;7.60;;;15.50;99.90;;;;;;5072945;28;20457;-70
2022/05/09 03:53:06;;;;;;;9.57;6.60;;;15.50;99.90;;;;;;5073031;28;20169;-70
2022/05/09 03:55:37;;;;;;;9.37;7.60;;;15.50;99.90;;;;;;5072925;28;20470;-70
2022/05/09 03:58:04;;;;;;;13.70;7.97;;;15.50;99.90;;;;;;5072848;28;20766;-70
2022/05/09 04:00:32;;;;;;;10.27;6.90;;;15.60;99.90;;;;;;5072629;28;20450;-70
2022/05/09 04:03:00;;;;;;;11.20;7.73;;;15.60;99.90;;;;;;5073013;28;20430;-70
2022/05/09 04:05:30;;;;;;;13.00;8.23;;;15.60;99.90;;;;;;5072860;28;20970;-70
2022/05/09 04:07:58;;;;;;;10.90;8.17;;;15.60;99.90;;;;;;5072805;28;20414;-69
2022/05/09 04:10:27;;;;;;;11.93;8.17;;;15.60;99.90;;;;;;5072838;28;20448;-70
2022/05/09 04:12:54;;;;;;;15.70;8.70;;;15.70;99.90;;;;;;5072943;28;20406;-69
2022/05/09 04:18:16;;;;;;;9.23;6.80;;;15.70;99.90;;;;;;5074283;28;20826;-69
2022/05/09 04:20:48;;;;;;;11.70;8.40;;;15.70;99.90;;;;;;5066199;28;20955;-70
2022/05/09 04:23:16;;;;;;;12.10;7.47;;;15.70;99.90;;;;;;5051182;28;20488;-69
2022/05/09 04:25:44;;;;;;;10.40;7.00;;;15.70;99.90;;;;;;5050686;28;20446;-69
2022/05/09 04:28:10;;;;;;;10.70;7.80;;;15.70;99.90;;;;;;5054592;28;20435;-70
2022/05/09 04:30:38;;;;;;;8.67;7.30;;;15.70;99.90;;;;;;5052099;28;20442;-69
2022/05/09 04:33:06;;;;;;;10.50;7.63;;;15.70;99.90;;;;;;5052500;28;20414;-69
2022/05/09 04:35:37;;;;;;;11.73;7.40;;;15.70;99.90;;;;;;5051784;28;20499;-70
2022/05/09 04:38:04;;;;;;;10.90;7.90;;;15.70;99.90;;;;;;5051082;28;20433;-70
2022/05/09 04:40:35;;;;;;;10.50;8.30;;;15.70;99.90;;;;;;5053520;28;20443;-69
2022/05/09 04:43:01;;;;;;;10.00;7.23;;;15.80;99.90;;;;;;5052023;28;20418;-69
2022/05/09 04:45:29;;;;;;;10.70;7.80;;;15.80;99.90;;;;;;5051711;28;20456;-70
2022/05/09 04:47:55;;;;;;;10.70;7.57;;;15.80;99.90;;;;;;5051917;28;20415;-70
2022/05/09 04:50:25;;;;;;;9.77;7.63;;;15.80;99.90;;;;;;5050759;28;20462;-70
2022/05/09 04:52:51;;;;;;;11.60;7.50;;;15.90;99.90;;;;;;5050955;28;20431;-69
2022/05/09 04:55:17;;;;;;;12.13;8.20;;;15.90;99.90;;;;;;5051886;28;20454;-69
2022/05/09 04:57:53;;;;;;;10.93;7.90;;;15.90;99.90;;;;;;5052098;28;20983;-70
2022/05/09 05:00:27;;;;;;;9.23;6.90;;;16.00;99.90;;;;;;5048415;28;20807;-70
2022/05/09 05:02:57;;;;;;;11.83;7.80;;;16.00;99.90;;;;;;5038803;28;20457;-70
2022/05/09 05:05:25;;;;;;;15.30;8.83;;;16.00;99.90;;;;;;5051506;28;20524;-70
2022/05/09 05:07:54;;;;;;;12.20;7.60;;;16.00;99.90;;;;;;5053606;28;20469;-70
2022/05/09 05:10:20;;;;;;;10.33;7.57;;;16.10;99.90;;;;;;5051846;28;20568;-70
2022/05/09 05:12:48;;;;;;;12.63;8.03;;;16.10;99.90;;;;;;5052102;28;20407;-70
2022/05/09 05:15:16;;;;;;;9.80;7.00;;;16.20;99.90;;;;;;5052994;28;20865;-70
2022/05/09 05:17:42;;;;;;;12.10;7.87;;;16.30;99.90;;;;;;5051890;28;20458;-70
2022/05/09 05:20:15;;;;;;;12.23;8.20;;;16.30;99.90;;;;;;5046335;28;20452;-70
2022/05/09 05:22:49;;;;;;;10.23;6.70;;;16.40;99.90;;;;;;5044400;28;20431;-69
2022/05/09 05:25:21;;;;;;;11.97;7.90;;;16.50;99.90;;;;;;5045254;28;20455;-69
2022/05/09 05:27:47;;;;;;;9.23;7.70;;;16.60;99.90;;;;;;5067758;28;20430;-70
2022/05/09 05:30:22;;;;;;;12.47;8.70;;;16.70;99.90;;;;;;5073278;28;20514;-71
2022/05/09 05:32:49;;;;;;;11.53;7.53;;;16.70;99.90;;;;;;5070221;28;20413;-69
2022/05/09 05:35:25;;;;;;;12.63;8.70;;;16.80;99.90;;;;;;5068810;28;20469;-68
2022/05/09 05:37:53;;;;;;;11.87;8.53;;;16.90;99.90;;;;;;5071821;28;20409;-70
2022/05/09 05:40:19;;;;;;;11.20;8.13;;;17.00;99.90;;;;;;5060817;28;20454;-70
2022/05/09 05:42:52;;;;;;;10.97;7.80;;;17.10;99.90;;;;;;5049481;28;20792;-70
2022/05/09 05:45:22;;;;;;;9.70;7.10;;;17.20;99.90;;;;;;5054324;28;20508;-70
2022/05/09 05:47:51;;;;;;;8.70;7.10;;;17.30;99.90;;;;;;5054362;28;20425;-70
2022/05/09 05:50:20;;;;;;;9.73;6.60;;;17.40;99.90;;;;;;5049335;28;20902;-68
2022/05/09 05:52:46;;;;;;;9.67;6.83;;;17.50;99.90;;;;;;5054069;28;20952;-68
2022/05/09 05:55:19;;;;;;;11.87;7.10;;;17.60;99.90;;;;;;5046459;28;21038;-68
2022/05/09 05:57:47;;;;;;;14.63;8.47;;;17.70;99.90;;;;;;5052509;28;20794;-68
2022/05/09 06:00:22;;;;;;;8.67;6.87;;;17.80;99.90;;;;;;5051771;28;21007;-68
2022/05/09 06:03:02;;;;;;;18.33;7.50;;;17.90;99.90;;;;;;5053638;28;20411;-68
2022/05/09 06:05:57;;;;;;;10.83;7.93;;;18.00;99.90;;;;;;5053773;28;20466;-68
2022/05/09 06:08:40;;;;;;;13.10;7.53;;;18.20;99.90;;;;;;5053556;28;20418;-68
2022/05/09 06:11:08;;;;;;;9.03;6.87;;;18.30;99.90;;;;;;5051766;28;20478;-68
2022/05/09 06:13:34;;;;;;;9.60;7.03;;;18.40;99.90;;;;;;5046103;28;20897;-68
2022/05/09 06:16:00;;;;;;;8.57;7.07;;;18.50;99.90;;;;;;5042289;28;20475;-68
2022/05/09 06:18:26;;;;;;;10.90;8.00;;;18.60;99.90;;;;;;5046032;28;20447;-69
2022/05/09 06:20:52;;;;;;;13.37;8.30;;;18.70;99.90;;;;;;5045954;28;20253;-68
2022/05/09 06:23:22;;;;;;;7.87;6.50;;;18.80;99.90;;;;;;5046601;28;20417;-69
2022/05/09 06:25:51;;;;;;;10.10;7.37;;;18.90;99.90;;;;;;5023957;28;20481;-69
2022/05/09 06:28:22;;;;;;;13.40;8.33;;;19.00;99.90;;;;;;5046173;28;20416;-70
2022/05/09 06:30:49;;;;;;;9.17;7.30;;;19.20;99.90;;;;;;5048824;28;20468;-69
2022/05/09 06:33:26;;;;;;;11.40;7.47;;;19.30;99.90;;;;;;5045281;28;20529;-69
2022/05/09 06:36:01;;;;;;;8.87;6.73;;;19.40;99.90;;;;;;5044319;28;21193;-71
2022/05/09 06:38:29;;;;;;;8.50;7.20;;;19.50;99.90;;;;;;5046944;28;20433;-69
2022/05/09 06:41:11;;;;;;;9.70;7.37;;;19.60;99.90;;;;;;5040741;28;20611;-69
2022/05/09 06:43:50;;;;;;;9.30;7.43;;;19.80;99.90;;;;;;5043770;28;20469;-69
2022/05/09 06:46:17;;;;;;;9.37;6.23;;;19.90;99.90;;;;;;5044165;28;20998;-69
2022/05/09 06:48:52;;;;;;;9.90;7.10;;;20.00;99.90;;;;;;5043717;28;20453;-70
2022/05/09 06:51:18;;;;;;;9.10;7.43;;;20.10;99.90;;;;;;5043262;28;20438;-70
2022/05/09 06:53:46;;;;;;;9.53;7.30;;;20.20;99.90;;;;;;5063462;28;20414;-69
2022/05/09 06:56:13;;;;;;;9.80;6.83;;;20.30;99.90;;;;;;5048357;28;20861;-69
2022/05/09 06:58:42;;;;;;;8.77;6.83;;;20.30;99.90;;;;;;5046782;28;20429;-69
2022/05/09 07:01:15;;;;;;;7.50;6.20;;;20.40;99.90;;;;;;5045416;28;21018;-70
2022/05/09 07:03:44;;;;;;;7.90;6.53;;;20.50;99.90;;;;;;5046918;28;20434;-70
2022/05/09 07:06:11;;;;;;;7.60;6.40;;;20.60;99.90;;;;;;5043625;28;20453;-69
2022/05/09 07:08:39;;;;;;;10.27;7.03;;;20.70;99.90;;;;;;5043285;28;20429;-69
2022/05/09 07:11:06;;;;;;;7.47;6.37;;;20.80;99.90;;;;;;5049515;28;20804;-70
2022/05/09 07:13:35;;;;;;;7.60;5.60;;;20.90;99.90;;;;;;5048805;28;20435;-70
2022/05/09 07:16:05;;;;;;;8.40;6.10;;;21.00;99.90;;;;;;5049425;28;20483;-70
2022/05/09 07:18:34;;;;;;;10.23;6.73;;;21.10;99.90;;;;;;5052027;28;20457;-70
2022/05/09 07:21:01;;;;;;;7.70;6.07;;;21.20;99.90;;;;;;5049468;28;20465;-69
2022/05/09 07:23:27;;;;;;;7.70;6.10;;;21.30;99.90;;;;;;5047467;28;20436;-70
2022/05/09 07:25:55;;;;;;;7.40;5.80;;;21.30;99.90;;;;;;5049387;28;20491;-70
2022/05/09 07:28:38;;;;;;;7.30;5.77;;;21.40;99.90;;;;;;5041763;28;20435;-70
2022/05/09 07:31:05;;;;;;;7.67;6.20;;;21.50;99.90;;;;;;5071510;23;20555;-70
2022/05/09 07:33:32;;;;;;;8.53;6.50;;;21.60;99.90;;;;;;4961327;28;20950;-69
2022/05/09 07:35:59;;;;;;;7.47;5.77;;;21.70;99.90;;;;;;4968131;28;20482;-70
2022/05/09 07:38:38;;;;;;;7.07;5.90;;;21.70;99.90;;;;;;4968823;28;20779;-69
2022/05/09 07:41:07;;;;;;;8.77;6.40;;;21.80;99.90;;;;;;4965273;28;20454;-69
2022/05/09 07:43:35;;;;;;;9.80;5.90;;;21.90;99.90;;;;;;4984953;28;20943;-69
2022/05/09 07:46:03;;;;;;;8.50;5.50;;;21.90;99.90;;;;;;4980384;28;20455;-69
2022/05/09 07:48:31;;;;;;;7.87;6.27;;;22.00;99.90;;;;;;4968196;28;20510;-70
2022/05/09 07:51:14;;;;;;;7.80;5.50;;;22.10;99.90;;;;;;4972050;28;20458;-69
2022/05/09 07:53:41;;;;;;;6.57;5.90;;;22.10;99.90;;;;;;4994116;28;20450;-69
2022/05/09 07:56:08;;;;;;;6.30;5.23;;;22.20;99.90;;;;;;4988155;28;20466;-69
2022/05/09 08:01:16;;;;;;;6.43;5.40;;;22.20;99.90;;;;;;5138233;23;20482;-69
2022/05/09 08:03:42;;;;;;;9.33;6.03;;;22.30;99.90;;;;;;5043036;28;20989;-69
2022/05/09 08:06:08;;;;;;;5.90;5.27;;;22.30;99.90;;;;;;5041345;28;20209;-69
2022/05/09 08:08:43;;;;;;;6.20;5.60;;;22.30;99.90;;;;;;5026386;28;20451;-69
2022/05/09 08:11:11;;;;;;;6.67;5.73;;;22.30;99.90;;;;;;5038810;28;20441;-70
2022/05/09 08:13:39;;;;;;;6.73;5.60;;;22.40;99.90;;;;;;5046680;28;20969;-69
2022/05/09 08:16:06;;;;;;;6.50;4.70;;;22.40;99.90;;;;;;5036895;28;21078;-70
2022/05/09 08:18:43;;;;;;;7.27;5.33;;;22.40;99.90;;;;;;5039226;28;20427;-69
2022/05/09 08:21:51;;;;;;;6.10;5.20;;;22.50;99.90;;;;;;5046781;28;21156;-69
2022/05/09 08:24:33;;;;;;;6.40;5.53;;;22.60;99.90;;;;;;5039255;28;21088;-70
2022/05/09 08:26:59;;;;;;;6.07;5.47;;;22.70;99.90;;;;;;5038756;28;20534;-70
2022/05/09 08:29:26;;;;;;;6.37;5.10;;;22.80;99.90;;;;;;5037553;28;20535;-70
2022/05/09 08:32:03;;;;;;;5.40;4.43;;;22.90;99.90;;;;;;5039102;28;20644;-69
2022/05/09 08:34:34;;;;;;;6.13;5.20;;;23.00;99.90;;;;;;5047341;28;20473;-70
2022/05/09 08:37:24;;;;;;;6.70;4.67;;;23.10;99.90;;;;;;5030726;28;20952;-70
2022/05/09 08:39:52;;;;;;;5.97;5.00;;;23.30;99.90;;;;;;5026714;28;20502;-70
2022/05/09 08:42:53;;;;;;;5.80;4.80;;;23.40;99.90;;;;;;5049606;28;20920;-70
2022/05/09 08:45:47;;;;;;;8.40;5.07;;;23.50;99.90;;;;;;5038082;28;20223;-70
2022/05/09 08:48:14;;;;;;;5.10;4.60;;;23.50;99.90;;;;;;5021971;28;20898;-69
2022/05/09 08:51:27;;;;;;;5.37;4.60;;;23.60;99.90;;;;;;5021982;28;20456;-70
2022/05/09 08:54:07;;;;;;;7.20;5.40;;;23.70;99.90;;;;;;5033473;28;20209;-71
2022/05/09 08:56:34;;;;;;;5.73;4.83;;;23.70;99.90;;;;;;5032302;28;20470;-70
2022/05/09 08:59:12;;;;;;;5.57;4.53;;;23.80;99.90;;;;;;5028930;28;20760;-70
2022/05/09 09:01:58;;;;;;;6.73;5.33;;;23.80;99.90;;;;;;5016806;28;20550;-69
2022/05/09 09:04:36;;;;;;;6.43;4.90;;;23.90;99.90;;;;;;5025649;28;20444;-70
2022/05/09 09:07:12;;;;;;;5.93;5.23;;;24.10;99.90;;;;;;5008786;28;20456;-69
2022/05/09 09:10:11;;;;;;;4.90;4.40;;;24.20;99.90;;;;;;5035927;28;20500;-70
2022/05/09 09:13:19;;;;;;;6.07;5.13;;;24.30;99.90;;;;;;5028880;28;20433;-69
2022/05/09 09:16:15;;;;;;;7.23;4.70;;;24.30;99.90;;;;;;5037320;28;20478;-69
2022/05/09 09:19:07;;;;;;;5.47;4.97;;;24.40;99.90;;;;;;5015500;28;20467;-69
2022/05/09 09:21:50;;;;;;;7.40;5.53;;;24.50;99.90;;;;;;4996978;28;20426;-69
2022/05/09 09:25:02;;;;;;;6.13;5.27;;;24.60;99.90;;;;;;5040125;28;20430;-69
2022/05/09 09:28:03;;;;;;;5.27;4.23;;;24.60;99.90;;;;;;5029205;28;20447;-69
2022/05/09 09:30:29;;;;;;;5.73;4.40;;;24.60;99.60;;;;;;5027256;28;20473;-70
2022/05/09 09:32:59;;;;;;;5.50;5.00;;;24.80;99.90;;;;;;5024287;28;20499;-69
2022/05/09 09:35:44;;;;;;;6.07;5.00;;;24.90;99.50;;;;;;5036670;28;20828;-70
2022/05/09 09:38:32;;;;;;;5.43;4.87;;;24.90;99.60;;;;;;5044169;28;20488;-69
2022/05/09 09:41:20;;;;;;;8.43;6.20;;;25.00;99.70;;;;;;5036967;28;21089;-69
2022/05/09 09:43:49;;;;;;;5.83;5.23;;;25.00;99.90;;;;;;5037468;28;20437;-69
2022/05/09 09:46:16;;;;;;;6.73;5.43;;;25.00;99.80;;;;;;5038452;28;20417;-69
2022/05/09 09:48:43;;;;;;;6.73;4.37;;;25.10;99.90;;;;;;5036033;28;20437;-69
2022/05/09 09:51:11;;;;;;;6.77;5.70;;;25.10;99.90;;;;;;5036568;28;20426;-69
2022/05/09 09:53:41;;;;;;;4.97;4.50;;;25.20;99.20;;;;;;5054847;28;20468;-70
2022/05/09 09:56:11;;;;;;;4.30;3.83;;;25.20;99.90;;;;;;5052101;28;20879;-70
2022/05/09 09:58:38;;;;;;;5.40;4.90;;;25.30;99.30;;;;;;5032161;28;20836;-69
2022/05/09 10:01:09;;;;;;;5.63;4.37;;;25.30;99.10;;;;;;5028868;28;20540;-70
2022/05/09 10:03:41;;;;;;;5.23;4.73;;;25.30;98.20;;;;;;5028854;28;20961;-70
2022/05/09 10:06:21;;;;;;;6.77;6.10;;;25.30;97.90;;;;;;5027164;28;21007;-69
2022/05/09 10:09:08;;;;;;;8.63;4.70;;;25.20;97.30;;;;;;5030758;28;20970;-69
2022/05/09 10:11:35;;;;;;;5.97;5.37;;;25.30;97.70;;;;;;5034539;28;21017;-69
2022/05/09 10:14:06;;;;;;;6.67;4.93;;;25.20;97.20;;;;;;5029221;28;20815;-69
2022/05/09 10:16:41;;;;;;;4.90;4.40;;;25.20;96.60;;;;;;5028195;28;20468;-70
2022/05/09 10:19:28;;;;;;;5.73;5.23;;;25.20;97.00;;;;;;5027441;28;20865;-69
2022/05/09 10:25:10;;;;;;;5.20;4.77;;;25.30;96.40;;;;;;5027020;28;20557;-69
2022/05/09 10:27:52;;;;;;;5.37;4.90;;;25.20;96.30;;;;;;5050261;28;20967;-70
2022/05/09 10:30:44;;;;;;;5.43;4.50;;;25.30;96.70;;;;;;5020342;28;21019;-67
2022/05/09 10:33:37;;;;;;;5.37;4.73;;;25.30;97.00;;;;;;5015280;28;20458;-68
2022/05/09 10:36:27;;;;;;;5.40;4.90;;;25.40;96.50;;;;;;5013888;28;20488;-68
2022/05/09 10:39:09;;;;;;;6.00;4.87;;;25.50;96.30;;;;;;5040419;28;20451;-68
2022/05/09 10:41:57;;;;;;;5.67;5.20;;;25.40;95.60;;;;;;5035885;28;20557;-67
2022/05/09 10:44:51;;;;;;;8.90;5.33;;;25.50;96.10;;;;;;5027335;28;20482;-69
2022/05/09 10:47:55;;;;;;;4.90;4.40;;;25.60;95.60;;;;;;5028921;28;20828;-69
2022/05/09 10:50:43;;;;;;;8.10;5.37;;;25.70;95.40;;;;;;5034756;28;20451;-68
2022/05/09 10:53:29;;;;;;;5.90;4.63;;;25.60;94.90;;;;;;5017849;28;20447;-68
2022/05/09 10:56:06;;;;;;;6.07;5.33;;;25.50;94.80;;;;;;5022152;28;20959;-68
2022/05/09 10:58:56;;;;;;;6.50;5.67;;;25.50;94.90;;;;;;5028313;28;20430;-68
2022/05/09 11:02:05;;;;;;;5.97;4.90;;;25.40;94.80;;;;;;5018937;28;20494;-68
2022/05/09 11:04:58;;;;;;;4.83;4.33;;;25.30;94.70;;;;;;5024961;28;20474;-68
2022/05/09 11:07:52;;;;;;;5.90;4.87;;;25.20;94.30;;;;;;5023814;28;20464;-69
2022/05/09 11:10:51;;;;;;;5.40;4.97;;;25.20;94.50;;;;;;5021878;28;20459;-69
2022/05/09 11:16:55;;;;;;;6.47;5.33;;;25.30;93.50;;;;;;4951639;27;20488;-70
2022/05/09 11:19:47;;;;;;;4.93;4.43;;;25.40;92.90;;;;;;4967692;28;20895;-70
2022/05/09 11:22:52;;;;;;;5.27;4.70;;;25.40;91.90;;;;;;4951943;28;20431;-68
2022/05/09 11:26:02;;;;;;;5.27;4.77;;;25.60;91.80;;;;;;5081521;23;20521;-68
2022/05/09 11:28:36;;;;;;;5.27;4.77;;;25.60;92.90;;;;;;5021247;28;20431;-69
2022/05/09 11:31:38;;;;;;;5.53;5.00;;;25.60;93.10;;;;;;5028112;28;20463;-69
2022/05/09 11:34:29;;;;;;;5.87;4.40;;;25.70;93.10;;;;;;5021452;28;20459;-68
2022/05/09 11:37:10;;;;;;;6.00;5.40;;;25.70;93.10;;;;;;5007875;28;20471;-69
2022/05/09 11:39:58;;;;;;;5.53;4.83;;;25.70;93.00;;;;;;5027825;28;20877;-70
2022/05/09 11:46:02;;;;;;;5.10;4.60;;;25.70;93.60;;;;;;5025071;28;21094;-68
2022/05/09 11:48:50;;;;;;;5.67;5.03;;;25.70;91.30;;;;;;5030015;28;21089;-69
2022/05/09 11:51:26;;;;;;;4.93;4.30;;;25.70;91.00;;;;;;5027714;28;20494;-69
2022/05/09 11:54:06;;;;;;;5.30;4.80;;;25.70;90.90;;;;;;5032632;28;20435;-69
2022/05/09 11:56:33;;;;;;;4.50;4.00;;;25.70;91.30;;;;;;5023632;28;20897;-68
2022/05/09 11:59:01;;;;;;;5.73;4.27;;;25.80;91.60;;;;;;5040931;28;20557;-69
2022/05/09 12:01:57;;;;;;;6.00;4.90;;;25.80;90.60;;;;;;5031135;28;21373;-69
2022/05/09 12:04:43;;;;;;;5.33;4.63;;;25.90;88.30;;;;;;5025020;28;20827;-70
2022/05/09 12:07:22;;;;;;;4.60;3.70;;;25.90;88.80;;;;;;5027147;28;20458;-69
2022/05/09 12:10:05;;;;;;;4.53;4.13;;;26.00;89.60;;;;;;5026121;28;20992;-69
2022/05/09 12:12:37;;;;;;;4.50;4.10;;;26.00;90.00;;;;;;5026342;28;20884;-69
2022/05/09 12:15:05;;;;;;;4.67;4.17;;;26.00;90.60;;;;;;5025172;28;20510;-68
2022/05/09 12:17:38;;;;;;;3.70;3.40;;;26.00;90.80;;;;;;5025158;28;20459;-68
2022/05/09 12:20:26;;;;;;;4.07;3.67;;;26.10;90.90;;;;;;5025865;28;20452;-68
2022/05/09 12:23:03;;;;;;;3.97;3.67;;;26.10;91.00;;;;;;5032834;28;20624;-69
2022/05/09 12:25:41;;;;;;;3.90;3.60;;;26.10;87.20;;;;;;5022697;28;20482;-68
2022/05/09 12:28:27;;;;;;;4.10;3.67;;;26.20;86.10;;;;;;5025466;28;20804;-68
2022/05/09 12:30:53;;;;;;;4.47;4.07;;;26.30;87.20;;;;;;5019883;28;20476;-68
2022/05/09 12:33:47;;;;;;;4.30;3.90;;;26.30;87.60;;;;;;5021295;28;20578;-68
2022/05/09 12:36:15;;;;;;;3.63;3.20;;;26.30;89.60;;;;;;5026410;28;20832;-70
2022/05/09 12:38:44;;;;;;;3.97;3.57;;;26.30;89.00;;;;;;5026006;28;20435;-70
2022/05/09 12:41:10;;;;;;;4.00;3.70;;;26.30;88.50;;;;;;5023094;28;20427;-69
2022/05/09 12:43:41;;;;;;;4.03;3.63;;;26.40;86.20;;;;;;5026468;28;20910;-69
2022/05/09 12:46:19;;;;;;;4.33;3.93;;;26.40;78.80;;;;;;5025004;28;21317;-69
2022/05/09 12:48:45;;;;;;;3.47;3.10;;;26.40;77.70;;;;;;5021814;28;20835;-67
2022/05/09 12:51:13;;;;;;;3.40;3.10;;;26.40;77.40;;;;;;5027963;28;20435;-67
2022/05/09 12:53:40;;;;;;;4.00;3.40;;;26.30;78.20;;;;;;5028380;28;20458;-68
2022/05/09 12:56:18;;;;;;;4.17;2.87;;;26.30;82.60;;;;;;5035638;28;20506;-68
2022/05/09 12:58:48;;;;;;;2.80;2.60;;;26.40;83.50;;;;;;5024680;28;21056;-68
2022/05/09 13:01:26;;;;;;;4.10;3.70;;;26.40;77.90;;;;;;5021259;28;20455;-70
2022/05/09 13:04:01;;;;;;;3.90;3.23;;;26.40;78.00;;;;;;5026473;28;20432;-68
2022/05/09 13:06:33;;;;;;;3.60;3.30;;;26.50;77.60;;;;;;5024465;28;20944;-69
2022/05/09 13:09:18;;;;;;;4.70;3.50;;;26.60;76.20;;;;;;5025838;28;20443;-68
2022/05/09 13:12:01;;;;;;;3.53;3.23;;;26.60;77.60;;;;;;5024422;28;20988;-69
2022/05/09 13:14:41;;;;;;;3.57;3.27;;;26.60;79.00;;;;;;5015578;28;21004;-68
2022/05/09 13:17:25;;;;;;;4.90;3.17;;;26.70;79.10;;;;;;5021628;28;20993;-68
2022/05/09 13:19:52;;;;;;;4.90;3.40;;;26.70;79.00;;;;;;5047088;28;20843;-69
2022/05/09 13:22:37;;;;;;;4.00;3.13;;;26.80;78.30;;;;;;5029810;28;20404;-70
2022/05/09 13:25:10;;;;;;;3.37;3.10;;;26.80;77.40;;;;;;5025723;28;20483;-69
2022/05/09 13:27:37;;;;;;;5.23;3.77;;;26.80;82.10;;;;;;5026296;28;20458;-69
2022/05/09 13:30:06;;;;;;;4.37;3.97;;;26.70;83.50;;;;;;5026828;28;20807;-69
2022/05/09 13:32:38;;;;;;;3.60;3.30;;;26.80;83.20;;;;;;5036932;28;20424;-69
2022/05/09 13:35:20;;;;;;;4.23;3.80;;;26.90;80.30;;;;;;5025240;28;20462;-69
2022/05/09 13:37:52;;;;;;;4.20;3.80;;;26.90;79.80;;;;;;5022151;28;20893;-69
2022/05/09 13:40:19;;;;;;;3.43;3.13;;;27.00;77.90;;;;;;5034315;28;20466;-70